Time;durP1;ratioP1;P1;durP2;ratioP2;P2;SDS_P1;SDS_P2;PMS_P1;PMS_P2;Temp;Humidity;BMP_temperature;BMP_pressure;BME280_temperature;BME280_humidity;BME280_pressure;Samples;Min_cycle;Max_cycle;Signal;HPM_P1;HPM_P2
2023/10/15 00:00:18;;;;;;;4.40;2.30;;;12.00;68.20;;;;;;6277383;22;20415;-41
2023/10/15 00:02:46;;;;;;;3.10;2.10;;;12.00;82.30;;;;;;6275907;22;20763;-40
2023/10/15 00:05:17;;;;;;;3.07;2.00;;;12.00;92.50;;;;;;6275272;22;20383;-38
2023/10/15 00:07:43;;;;;;;3.20;2.00;;;12.00;99.90;;;;;;6275364;22;20377;-41
2023/10/15 00:10:13;;;;;;;2.90;1.40;;;11.90;99.90;;;;;;6274696;22;20386;-40
2023/10/15 00:12:39;;;;;;;3.80;2.40;;;11.90;99.90;;;;;;6247174;22;20522;-38
2023/10/15 00:15:30;;;;;;;5.33;2.27;;;11.90;99.90;;;;;;6274667;22;20374;-40
2023/10/15 00:18:01;;;;;;;4.93;2.23;;;11.90;99.90;;;;;;6271908;22;20391;-38
2023/10/15 00:20:31;;;;;;;3.20;2.27;;;11.90;99.90;;;;;;6282969;22;20433;-39
2023/10/15 00:22:58;;;;;;;4.00;2.10;;;11.90;99.90;;;;;;6304403;22;20387;-38
2023/10/15 00:25:24;;;;;;;6.43;2.30;;;11.80;99.90;;;;;;6277057;22;20386;-38
2023/10/15 00:27:57;;;;;;;3.43;2.00;;;11.80;99.90;;;;;;6304888;22;20432;-39
2023/10/15 00:30:31;;;;;;;3.37;2.07;;;11.80;99.90;;;;;;6303816;22;20128;-39
2023/10/15 00:32:57;;;;;;;3.80;2.10;;;11.80;99.90;;;;;;6307122;22;20448;-42
2023/10/15 00:35:25;;;;;;;2.73;1.80;;;11.80;99.90;;;;;;6306652;22;20378;-39
2023/10/15 00:38:00;;;;;;;2.83;2.20;;;11.80;99.90;;;;;;6306899;22;20463;-41
2023/10/15 00:40:27;;;;;;;3.07;1.93;;;11.70;99.90;;;;;;6306489;22;20513;-39
2023/10/15 00:42:55;;;;;;;2.20;1.70;;;11.70;99.90;;;;;;6306994;22;20383;-39
2023/10/15 00:45:21;;;;;;;3.77;2.17;;;11.70;99.90;;;;;;6281085;22;20347;-39
2023/10/15 00:48:02;;;;;;;2.00;1.63;;;11.70;99.90;;;;;;6307910;22;20952;-42
2023/10/15 00:50:38;;;;;;;3.73;2.60;;;11.70;99.90;;;;;;6308525;22;20485;-44
2023/10/15 00:53:07;;;;;;;4.20;2.30;;;11.70;99.90;;;;;;6307815;22;20474;-38
2023/10/15 00:55:36;;;;;;;3.00;2.20;;;11.70;99.90;;;;;;6307760;22;20488;-39
2023/10/15 00:58:08;;;;;;;3.60;1.90;;;11.70;99.90;;;;;;6308151;22;20809;-39
2023/10/15 01:00:47;;;;;;;4.57;2.27;;;11.70;99.90;;;;;;6308261;22;20513;-39
2023/10/15 01:03:13;;;;;;;3.47;2.23;;;11.70;99.90;;;;;;6309627;22;20409;-38
2023/10/15 01:05:54;;;;;;;2.97;2.20;;;11.70;99.90;;;;;;6310487;22;20374;-40
2023/10/15 01:08:25;;;;;;;3.43;1.70;;;11.70;99.90;;;;;;6307401;22;20751;-38
2023/10/15 01:11:10;;;;;;;3.63;2.00;;;11.70;99.90;;;;;;6308259;22;20381;-38
2023/10/15 01:13:40;;;;;;;3.40;1.60;;;11.70;99.90;;;;;;6281852;22;20480;-38
2023/10/15 01:16:10;;;;;;;3.43;1.50;;;11.70;99.90;;;;;;6307776;22;20396;-45
2023/10/15 01:18:36;;;;;;;4.30;2.10;;;11.80;99.90;;;;;;6309627;22;20358;-38
2023/10/15 01:21:04;;;;;;;7.10;1.90;;;11.70;99.90;;;;;;6308482;22;20492;-39
2023/10/15 01:24:04;;;;;;;9.17;2.03;;;11.80;1.00;;;;;;6310153;22;20728;-39
2023/10/15 01:26:25;;;;;;;4.27;1.97;;;11.90;99.90;;;;;;6306881;22;20461;-39
2023/10/15 01:28:51;;;;;;;4.60;2.20;;;12.00;99.90;;;;;;6310350;22;20378;-51
2023/10/15 01:31:17;;;;;;;4.77;2.33;;;12.00;99.90;;;;;;6310589;22;20451;-40
2023/10/15 01:33:46;;;;;;;4.27;1.60;;;11.90;99.90;;;;;;6310482;22;20432;-38
2023/10/15 01:36:21;;;;;;;6.50;1.87;;;11.90;99.90;;;;;;6310658;22;20358;-38
2023/10/15 01:38:54;;;;;;;4.97;1.70;;;11.90;99.90;;;;;;6310713;22;20661;-38
2023/10/15 01:41:22;;;;;;;14.33;2.03;;;11.90;99.90;;;;;;6311082;22;20379;-38
2023/10/15 01:43:49;;;;;;;3.83;1.63;;;11.90;99.90;;;;;;6310933;22;20374;-39
2023/10/15 01:46:39;;;;;;;2.93;1.63;;;11.90;99.90;;;;;;6310365;22;20393;-40
2023/10/15 01:49:06;;;;;;;4.23;1.47;;;11.90;99.90;;;;;;6310456;22;20394;-39
2023/10/15 01:51:39;;;;;;;2.63;1.50;;;11.90;99.90;;;;;;6310310;22;20373;-41
2023/10/15 01:54:09;;;;;;;4.43;2.03;;;11.90;99.90;;;;;;6307008;22;20369;-40
2023/10/15 01:56:36;;;;;;;4.00;1.70;;;11.90;99.90;;;;;;6311700;22;20414;-39
2023/10/15 01:59:08;;;;;;;4.10;1.50;;;11.90;99.90;;;;;;6311308;22;20430;-39
2023/10/15 02:01:37;;;;;;;3.17;1.50;;;11.90;99.90;;;;;;6309277;22;20531;-38
2023/10/15 02:04:04;;;;;;;5.07;1.73;;;11.90;99.90;;;;;;6308137;22;20378;-38
2023/10/15 02:06:35;;;;;;;2.50;1.53;;;11.90;99.90;;;;;;6309499;22;20369;-39
2023/10/15 02:09:07;;;;;;;4.00;1.57;;;11.90;99.90;;;;;;6308832;22;20454;-37
2023/10/15 02:11:36;;;;;;;4.10;2.00;;;11.90;99.90;;;;;;6309606;22;20600;-38
2023/10/15 02:14:07;;;;;;;4.03;1.40;;;11.90;99.90;;;;;;6309877;22;20401;-37
2023/10/15 02:16:37;;;;;;;2.73;1.50;;;11.90;99.90;;;;;;6308138;22;20489;-39
2023/10/15 02:19:07;;;;;;;5.23;1.80;;;12.00;99.90;;;;;;6307349;22;20494;-38
2023/10/15 02:21:34;;;;;;;3.23;1.67;;;12.00;99.90;;;;;;6306187;22;20418;-38
2023/10/15 02:24:08;;;;;;;3.03;1.60;;;12.00;99.90;;;;;;6306053;22;20377;-37
2023/10/15 02:26:35;;;;;;;6.90;1.90;;;12.00;99.90;;;;;;6305573;22;20401;-39
2023/10/15 02:29:20;;;;;;;2.47;1.17;;;12.00;99.90;;;;;;6306582;22;20805;-40
2023/10/15 02:31:46;;;;;;;6.10;1.83;;;12.10;99.90;;;;;;6308325;22;20401;-38
2023/10/15 02:34:14;;;;;;;2.50;1.80;;;12.10;99.90;;;;;;6307910;22;20390;-40
2023/10/15 02:36:42;;;;;;;2.80;1.60;;;12.10;99.90;;;;;;6308961;22;20354;-37
2023/10/15 02:39:08;;;;;;;2.93;1.50;;;12.10;99.90;;;;;;6308604;22;20505;-38
2023/10/15 02:41:40;;;;;;;2.90;1.50;;;12.10;99.90;;;;;;6309121;22;20631;-41
2023/10/15 02:44:12;;;;;;;3.07;1.70;;;12.10;99.90;;;;;;6308298;22;20148;-40
2023/10/15 02:46:47;;;;;;;2.97;1.80;;;12.10;99.90;;;;;;6308420;22;20854;-38
2023/10/15 02:49:15;;;;;;;3.80;1.50;;;12.10;99.90;;;;;;6307970;22;20391;-38
2023/10/15 02:51:42;;;;;;;2.47;1.50;;;12.10;99.90;;;;;;6306843;22;20412;-38
2023/10/15 02:56:56;;;;;;;5.10;1.73;;;12.10;99.90;;;;;;6307099;22;20677;-37
2023/10/15 02:59:23;;;;;;;3.33;1.50;;;12.10;99.90;;;;;;6306649;22;20896;-40
2023/10/15 03:01:54;;;;;;;3.13;1.23;;;12.10;99.90;;;;;;6305755;22;20447;-38
2023/10/15 03:04:32;;;;;;;2.60;1.60;;;12.10;1.00;;;;;;6279214;22;20394;-39
2023/10/15 03:07:17;;;;;;;3.40;1.53;;;12.10;1.00;;;;;;6306845;22;20413;-37
2023/10/15 03:09:43;;;;;;;3.37;1.47;;;12.10;99.90;;;;;;6306567;22;20446;-39
2023/10/15 03:12:13;;;;;;;5.97;1.50;;;12.10;99.90;;;;;;6306102;22;20792;-40
2023/10/15 03:14:41;;;;;;;2.30;1.43;;;12.10;99.90;;;;;;6307227;22;20378;-39
2023/10/15 03:17:13;;;;;;;2.37;1.30;;;12.10;99.90;;;;;;6306386;22;20831;-40
2023/10/15 03:19:39;;;;;;;4.83;1.50;;;12.10;99.90;;;;;;6305980;22;20421;-38
2023/10/15 03:22:08;;;;;;;2.97;1.20;;;12.10;99.90;;;;;;6306705;22;20382;-40
2023/10/15 03:24:34;;;;;;;3.20;1.40;;;12.10;99.90;;;;;;6306514;22;20437;-39
2023/10/15 03:27:01;;;;;;;2.77;1.33;;;12.10;99.90;;;;;;6306469;22;20776;-41
2023/10/15 03:29:26;;;;;;;2.03;1.30;;;12.10;99.90;;;;;;6308292;22;20688;-38
2023/10/15 03:32:04;;;;;;;4.00;1.40;;;12.10;99.90;;;;;;6308433;22;20421;-38
2023/10/15 03:34:35;;;;;;;2.30;1.20;;;12.10;99.90;;;;;;6307220;22;20217;-39
2023/10/15 03:37:01;;;;;;;3.97;1.50;;;12.10;99.90;;;;;;6306867;22;20392;-38
2023/10/15 03:39:54;;;;;;;4.00;1.83;;;12.10;99.90;;;;;;6307710;22;20469;-40
2023/10/15 03:44:44;;;;;;;8.97;1.73;;;12.10;99.90;;;;;;6309980;22;20901;-38
2023/10/15 03:47:22;;;;;;;5.07;2.00;;;12.10;1.00;;;;;;6308924;22;20226;-38
2023/10/15 03:49:51;;;;;;;4.50;1.37;;;12.10;1.00;;;;;;6282392;22;20394;-39
2023/10/15 03:52:20;;;;;;;4.07;1.80;;;12.10;99.90;;;;;;6309749;22;20731;-39
2023/10/15 03:54:49;;;;;;;3.73;1.60;;;12.10;99.90;;;;;;6308753;22;20370;-39
2023/10/15 03:57:34;;;;;;;2.83;1.53;;;12.10;99.90;;;;;;6309127;22;20629;-40
2023/10/15 04:00:00;;;;;;;5.00;1.37;;;12.10;99.90;;;;;;6309077;22;20410;-38
2023/10/15 04:02:28;;;;;;;2.70;1.50;;;12.10;99.90;;;;;;6309431;22;20398;-38
2023/10/15 04:08:18;;;;;;;4.43;1.50;;;12.10;99.90;;;;;;6308381;22;20374;-39
2023/10/15 04:10:44;;;;;;;3.03;1.60;;;12.10;99.90;;;;;;6306980;22;20378;-39
2023/10/15 04:13:09;;;;;;;1.80;1.10;;;12.00;99.90;;;;;;6279469;22;20382;-40
2023/10/15 04:15:35;;;;;;;4.30;1.80;;;12.00;99.90;;;;;;6309627;22;20223;-38
2023/10/15 04:18:01;;;;;;;4.40;1.70;;;12.00;99.90;;;;;;6307895;22;20162;-40
2023/10/15 04:20:34;;;;;;;3.47;1.77;;;12.00;99.90;;;;;;6306720;22;20543;-38
2023/10/15 04:23:00;;;;;;;4.20;1.73;;;12.00;99.90;;;;;;6306677;22;20148;-39
2023/10/15 04:25:32;;;;;;;5.43;1.87;;;12.00;99.90;;;;;;6307951;22;20350;-38
2023/10/15 04:28:08;;;;;;;2.43;1.40;;;11.90;99.90;;;;;;6308231;22;20350;-38
2023/10/15 04:30:38;;;;;;;2.93;1.40;;;11.90;99.90;;;;;;6308564;22;20388;-40
2023/10/15 04:33:13;;;;;;;2.90;1.57;;;11.90;1.00;;;;;;6308115;22;20775;-38
2023/10/15 04:35:40;;;;;;;5.87;2.17;;;12.00;1.00;;;;;;6310096;22;20658;-39
2023/10/15 04:38:09;;;;;;;3.30;2.40;;;12.00;1.00;;;;;;6309591;22;20812;-43
2023/10/15 04:43:25;;;;;;;4.07;1.90;;;12.00;1.00;;;;;;6309856;22;20715;-39
2023/10/15 04:45:51;;;;;;;4.10;2.00;;;12.00;1.00;;;;;;6285826;22;20374;-40
2023/10/15 04:48:26;;;;;;;3.40;2.00;;;12.00;1.00;;;;;;6311330;22;20386;-38
2023/10/15 04:50:51;;;;;;;3.80;1.47;;;12.10;1.00;;;;;;6309279;22;20385;-40
2023/10/15 04:53:30;;;;;;;4.27;2.33;;;12.10;1.00;;;;;;6308233;22;20408;-38
2023/10/15 04:55:56;;;;;;;2.80;1.80;;;12.00;1.00;;;;;;6307653;22;20175;-38
2023/10/15 04:58:27;;;;;;;2.10;1.87;;;12.00;1.00;;;;;;6280417;22;20370;-40
2023/10/15 05:00:54;;;;;;;3.20;1.47;;;12.00;1.00;;;;;;6308102;22;20417;-40
2023/10/15 05:03:23;;;;;;;4.50;1.47;;;12.00;1.00;;;;;;6307976;22;20624;-39
2023/10/15 05:05:49;;;;;;;5.73;2.00;;;12.00;1.00;;;;;;6308553;22;20374;-39
2023/10/15 05:08:17;;;;;;;4.23;1.93;;;12.00;1.00;;;;;;6306540;22;20425;-40
2023/10/15 05:10:49;;;;;;;4.53;2.70;;;12.00;1.00;;;;;;6307662;22;20354;-42
2023/10/15 05:13:16;;;;;;;3.67;1.60;;;12.00;33.20;;;;;;6308653;22;20354;-39
2023/10/15 05:15:44;;;;;;;4.73;1.60;;;11.90;64.70;;;;;;6309393;22;20796;-41
2023/10/15 05:18:10;;;;;;;2.03;1.50;;;11.90;99.90;;;;;;6308618;22;20685;-38
2023/10/15 05:20:36;;;;;;;3.77;1.93;;;11.90;99.90;;;;;;6309035;22;20537;-39
2023/10/15 05:23:03;;;;;;;3.50;1.50;;;11.90;99.90;;;;;;6311231;22;20654;-39
2023/10/15 05:25:29;;;;;;;2.87;1.67;;;11.80;99.90;;;;;;6311004;22;20136;-39
2023/10/15 05:27:55;;;;;;;4.77;1.70;;;11.80;99.90;;;;;;6310686;22;20359;-38
2023/10/15 05:30:21;;;;;;;5.23;1.83;;;11.80;99.90;;;;;;6311424;22;20845;-38
2023/10/15 05:32:48;;;;;;;3.63;1.90;;;11.80;99.90;;;;;;6310181;22;20152;-38
2023/10/15 05:35:17;;;;;;;2.00;1.53;;;11.80;99.90;;;;;;6283528;22;20515;-38
2023/10/15 05:37:43;;;;;;;3.57;1.80;;;11.70;99.90;;;;;;6309468;22;20373;-42
2023/10/15 05:40:09;;;;;;;7.47;2.10;;;11.80;99.90;;;;;;6309069;22;20490;-39
2023/10/15 05:42:35;;;;;;;4.07;1.77;;;11.70;99.90;;;;;;6310502;22;20386;-41
2023/10/15 05:45:01;;;;;;;3.23;1.77;;;11.70;99.90;;;;;;6309977;22;20394;-40
2023/10/15 05:47:30;;;;;;;4.33;1.43;;;11.70;99.90;;;;;;6309487;22;20378;-38
2023/10/15 05:49:56;;;;;;;2.60;1.80;;;11.70;99.90;;;;;;6311345;22;20382;-39
2023/10/15 05:52:23;;;;;;;5.47;1.70;;;11.70;99.90;;;;;;6311250;22;20358;-39
2023/10/15 05:54:51;;;;;;;2.43;1.70;;;11.80;99.90;;;;;;6311545;22;20378;-39
2023/10/15 05:57:17;;;;;;;4.20;2.23;;;11.70;99.90;;;;;;6310972;22;20429;-39
2023/10/15 05:59:43;;;;;;;6.23;3.00;;;11.80;99.90;;;;;;6308810;22;20483;-39
2023/10/15 06:02:09;;;;;;;5.60;2.13;;;11.80;99.90;;;;;;6282713;22;20159;-40
2023/10/15 06:04:36;;;;;;;2.87;1.90;;;11.80;99.90;;;;;;6309825;22;20722;-40
2023/10/15 06:07:05;;;;;;;3.60;1.70;;;11.80;99.90;;;;;;6309111;22;20128;-38
2023/10/15 06:09:31;;;;;;;6.50;1.40;;;11.90;99.90;;;;;;6308662;22;20419;-39
2023/10/15 06:11:57;;;;;;;6.03;1.83;;;11.90;99.90;;;;;;6309200;22;20386;-38
2023/10/15 06:14:23;;;;;;;4.70;1.87;;;11.90;99.90;;;;;;6310617;22;20772;-40
2023/10/15 06:16:52;;;;;;;3.17;1.80;;;11.90;99.90;;;;;;6310361;22;20163;-42
2023/10/15 06:19:19;;;;;;;2.60;1.13;;;12.00;99.90;;;;;;6309508;22;20839;-39
2023/10/15 06:21:44;;;;;;;5.17;2.50;;;12.00;99.90;;;;;;6309029;22;20433;-43
2023/10/15 06:24:10;;;;;;;2.83;1.70;;;12.00;99.90;;;;;;6309442;22;20618;-39
2023/10/15 06:26:37;;;;;;;2.73;1.53;;;12.10;99.90;;;;;;6311228;22;20598;-39
2023/10/15 06:29:03;;;;;;;3.07;2.20;;;12.10;99.90;;;;;;6284886;22;20486;-40
2023/10/15 06:31:30;;;;;;;3.13;1.70;;;12.10;99.90;;;;;;6285560;22;20591;-42
2023/10/15 06:33:56;;;;;;;6.03;1.97;;;12.10;99.90;;;;;;6311526;22;20638;-40
2023/10/15 06:36:22;;;;;;;4.93;1.70;;;12.10;99.90;;;;;;6285790;22;20397;-41
2023/10/15 06:38:52;;;;;;;4.77;1.63;;;12.10;99.90;;;;;;6311080;22;20662;-39
2023/10/15 06:41:18;;;;;;;4.73;2.30;;;12.10;99.90;;;;;;6285591;22;20746;-40
2023/10/15 06:43:44;;;;;;;4.60;2.07;;;12.10;99.90;;;;;;6313392;22;20383;-39
2023/10/15 06:46:10;;;;;;;2.93;1.77;;;12.20;99.90;;;;;;6312534;22;20132;-39
2023/10/15 06:48:37;;;;;;;2.97;1.90;;;12.20;99.90;;;;;;6310603;22;20170;-38
2023/10/15 06:51:07;;;;;;;2.40;1.50;;;12.30;99.90;;;;;;6283256;22;20698;-41
2023/10/15 06:53:36;;;;;;;3.10;1.67;;;12.30;99.90;;;;;;6311823;22;20388;-39
2023/10/15 06:56:06;;;;;;;4.80;2.53;;;12.30;99.90;;;;;;6310735;22;20469;-39
2023/10/15 06:58:33;;;;;;;4.23;1.70;;;12.20;99.90;;;;;;6308349;22;20359;-39
2023/10/15 07:00:59;;;;;;;3.70;1.93;;;12.20;99.90;;;;;;6307422;22;20414;-39
2023/10/15 07:03:25;;;;;;;3.93;2.23;;;12.20;99.90;;;;;;6307577;22;20385;-39
2023/10/15 07:05:51;;;;;;;2.87;1.80;;;12.20;99.90;;;;;;6308450;22;20163;-40
2023/10/15 07:08:17;;;;;;;2.33;1.60;;;12.20;99.90;;;;;;6309327;22;20154;-38
2023/10/15 07:10:43;;;;;;;3.43;1.93;;;12.30;99.90;;;;;;6280163;22;20495;-39
2023/10/15 07:13:10;;;;;;;6.47;1.80;;;12.30;99.90;;;;;;6307941;22;20366;-41
2023/10/15 07:15:37;;;;;;;3.53;1.90;;;12.40;99.90;;;;;;6306826;22;20378;-38
2023/10/15 07:18:04;;;;;;;4.80;1.97;;;12.50;99.90;;;;;;6306342;22;20386;-38
2023/10/15 07:20:30;;;;;;;3.67;2.00;;;12.50;99.90;;;;;;6308436;22;20449;-41
2023/10/15 07:23:00;;;;;;;4.10;2.40;;;12.60;99.90;;;;;;6282407;22;20383;-39
2023/10/15 07:25:27;;;;;;;9.23;2.83;;;12.70;99.90;;;;;;6280984;22;20382;-38
2023/10/15 07:27:55;;;;;;;3.40;1.87;;;12.70;94.10;;;;;;6307033;22;20378;-40
2023/10/15 07:30:20;;;;;;;2.87;2.00;;;12.70;38.40;;;;;;6253780;22;20793;-40
2023/10/15 07:32:46;;;;;;;3.00;1.80;;;12.80;9.50;;;;;;6307007;22;20387;-41
2023/10/15 07:35:13;;;;;;;2.70;1.70;;;12.80;1.00;;;;;;6278884;22;20160;-37
2023/10/15 07:37:44;;;;;;;3.00;1.87;;;12.90;1.00;;;;;;6305393;22;20454;-39
2023/10/15 07:40:18;;;;;;;3.97;1.80;;;13.00;1.00;;;;;;6306018;22;20446;-39
2023/10/15 07:42:58;;;;;;;2.23;1.50;;;13.20;1.00;;;;;;6306587;22;20382;-37
2023/10/15 07:45:28;;;;;;;6.33;2.43;;;13.50;1.00;;;;;;6305392;22;20390;-38
2023/10/15 07:48:01;;;;;;;3.20;1.90;;;13.80;1.00;;;;;;6307232;22;20393;-39
2023/10/15 07:50:33;;;;;;;3.50;2.20;;;14.00;99.90;;;;;;6308381;22;20382;-38
2023/10/15 07:52:59;;;;;;;5.97;2.43;;;14.40;99.90;;;;;;6281781;22;20414;-39
2023/10/15 07:55:26;;;;;;;9.17;3.23;;;14.80;99.90;;;;;;6307850;22;20765;-41
2023/10/15 07:57:52;;;;;;;3.07;2.30;;;15.20;99.90;;;;;;6309050;22;20386;-39
2023/10/15 08:00:29;;;;;;;6.40;3.40;;;15.80;75.90;;;;;;6255090;22;20524;-39
2023/10/15 08:02:59;;;;;;;5.90;2.60;;;16.40;5.70;;;;;;6306843;22;20472;-41
2023/10/15 08:05:25;;;;;;;7.57;2.60;;;16.90;1.00;;;;;;6307981;22;20493;-38
2023/10/15 08:07:51;;;;;;;4.30;2.30;;;17.20;1.00;;;;;;6308575;22;20801;-39
2023/10/15 08:10:17;;;;;;;3.37;1.80;;;17.50;1.00;;;;;;6305890;22;20366;-39
2023/10/15 08:12:44;;;;;;;5.27;2.17;;;17.80;1.00;;;;;;6305218;22;20397;-42
2023/10/15 08:15:10;;;;;;;3.10;1.87;;;18.10;1.00;;;;;;6306747;22;20393;-39
2023/10/15 08:17:36;;;;;;;3.30;1.57;;;18.30;1.00;;;;;;6306329;22;20382;-39
2023/10/15 08:20:04;;;;;;;4.00;1.63;;;18.10;1.00;;;;;;6306686;22;20507;-41
2023/10/15 08:22:29;;;;;;;4.20;1.70;;;17.90;1.00;;;;;;6308592;22;20124;-42
2023/10/15 08:24:58;;;;;;;7.67;2.10;;;17.80;1.00;;;;;;6308608;22;20373;-39
2023/10/15 08:27:23;;;;;;;4.50;1.33;;;17.80;1.00;;;;;;6308045;22;20148;-40
2023/10/15 08:29:49;;;;;;;3.63;1.50;;;17.90;1.00;;;;;;6305379;22;20484;-41
2023/10/15 08:32:18;;;;;;;3.90;1.60;;;18.30;1.00;;;;;;6305654;22;20444;-43
2023/10/15 08:34:48;;;;;;;4.70;1.80;;;18.70;1.00;;;;;;6254682;22;20156;-40
2023/10/15 08:37:14;;;;;;;5.17;1.80;;;19.20;1.00;;;;;;6279740;22;20618;-41
2023/10/15 08:39:40;;;;;;;5.13;2.40;;;19.30;1.00;;;;;;6279042;22;20433;-39
2023/10/15 08:42:20;;;;;;;5.70;2.47;;;19.50;1.00;;;;;;6280736;22;20670;-40
2023/10/15 08:44:49;;;;;;;5.27;2.10;;;19.90;1.00;;;;;;6280263;22;20762;-39
2023/10/15 08:47:16;;;;;;;3.60;1.50;;;20.30;1.00;;;;;;6306711;22;20674;-39
2023/10/15 08:49:52;;;;;;;4.13;1.73;;;20.70;1.00;;;;;;6306249;22;20362;-40
2023/10/15 08:52:21;;;;;;;5.00;2.50;;;21.20;1.00;;;;;;6306276;22;20638;-40
2023/10/15 08:54:48;;;;;;;4.30;2.40;;;21.70;1.00;;;;;;6306312;22;20382;-39
2023/10/15 08:57:14;;;;;;;3.97;1.70;;;22.00;1.00;;;;;;6254670;22;20513;-39
2023/10/15 08:59:43;;;;;;;3.10;1.33;;;22.50;1.00;;;;;;6278906;22;20713;-41
2023/10/15 09:02:09;;;;;;;3.73;1.43;;;23.20;1.00;;;;;;6305506;22;20382;-40
2023/10/15 09:04:35;;;;;;;2.00;0.97;;;23.50;1.00;;;;;;6280367;22;20377;-40
2023/10/15 09:07:02;;;;;;;4.13;1.87;;;23.40;1.00;;;;;;6280748;22;20374;-40
2023/10/15 09:09:29;;;;;;;6.27;2.30;;;22.90;1.00;;;;;;6280622;22;20469;-44
2023/10/15 09:11:55;;;;;;;3.03;1.43;;;22.30;1.00;;;;;;6252829;22;20429;-41
2023/10/15 09:14:56;;;;;;;2.33;1.40;;;21.50;1.00;;;;;;6307148;22;20397;-41
2023/10/15 09:17:24;;;;;;;3.80;1.67;;;20.60;1.00;;;;;;6129360;23;20409;-40
2023/10/15 09:19:49;;;;;;;2.90;1.67;;;20.10;1.00;;;;;;6277360;22;20484;-41
2023/10/15 09:22:15;;;;;;;2.83;1.30;;;19.60;1.00;;;;;;6307372;22;20366;-39
2023/10/15 09:24:45;;;;;;;3.27;1.40;;;19.10;1.00;;;;;;6277107;22;20174;-41
2023/10/15 09:27:11;;;;;;;4.30;1.80;;;18.80;1.00;;;;;;6279113;22;20470;-40
2023/10/15 09:29:37;;;;;;;4.00;1.67;;;18.70;1.00;;;;;;6306854;22;20460;-40
2023/10/15 09:32:04;;;;;;;4.37;1.90;;;18.60;1.00;;;;;;6277783;22;20402;-42
2023/10/15 09:34:37;;;;;;;4.07;1.67;;;18.50;1.00;;;;;;6304338;22;20128;-38
2023/10/15 09:37:05;;;;;;;3.33;1.53;;;18.30;1.00;;;;;;6305502;22;20351;-37
2023/10/15 09:39:31;;;;;;;4.20;1.87;;;18.20;1.00;;;;;;6305751;22;20422;-41
2023/10/15 09:41:57;;;;;;;3.50;1.90;;;18.00;1.00;;;;;;6306879;22;20390;-38
2023/10/15 09:44:23;;;;;;;3.27;1.50;;;17.90;1.00;;;;;;6306833;22;20354;-38
2023/10/15 09:46:50;;;;;;;2.57;1.30;;;17.70;1.00;;;;;;6307844;22;20481;-38
2023/10/15 09:49:18;;;;;;;2.70;1.77;;;17.60;1.00;;;;;;6309124;22;20412;-38
2023/10/15 09:51:47;;;;;;;5.50;1.70;;;18.00;1.00;;;;;;6309846;22;20861;-39
2023/10/15 09:54:14;;;;;;;5.90;2.13;;;18.30;1.00;;;;;;6282455;22;20931;-39
2023/10/15 09:56:41;;;;;;;4.17;1.70;;;18.40;1.00;;;;;;6282976;22;20383;-38
2023/10/15 09:59:10;;;;;;;4.30;1.50;;;18.50;1.00;;;;;;6309662;22;20354;-39
2023/10/15 10:01:44;;;;;;;3.53;1.30;;;18.50;1.00;;;;;;6308491;22;20393;-40
2023/10/15 10:04:42;;;;;;;2.63;1.37;;;19.00;1.00;;;;;;6256987;22;20823;-38
2023/10/15 10:07:34;;;;;;;4.17;1.80;;;20.30;1.00;;;;;;6280738;22;20378;-40
2023/10/15 10:10:35;;;;;;;3.00;1.77;;;21.30;1.00;;;;;;6279681;22;20394;-39
2023/10/15 10:13:19;;;;;;;2.40;1.00;;;22.30;1.00;;;;;;6305956;22;20411;-40
2023/10/15 10:15:52;;;;;;;3.07;1.57;;;23.20;1.00;;;;;;6306078;22;20440;-40
2023/10/15 10:18:18;;;;;;;4.30;1.40;;;24.00;1.00;;;;;;6282786;22;20382;-43
2023/10/15 10:20:48;;;;;;;4.07;1.33;;;24.10;1.00;;;;;;6307062;22;20441;-39
2023/10/15 10:23:14;;;;;;;2.90;1.13;;;24.10;1.00;;;;;;6307409;22;20358;-40
2023/10/15 10:25:45;;;;;;;2.10;1.10;;;24.40;1.00;;;;;;6308733;22;20497;-41
2023/10/15 10:28:13;;;;;;;4.40;1.47;;;24.50;1.00;;;;;;6306304;22;20394;-40
2023/10/15 10:30:39;;;;;;;3.67;1.20;;;24.30;1.00;;;;;;6306542;22;20409;-38
2023/10/15 10:33:05;;;;;;;2.73;1.40;;;23.80;1.00;;;;;;6278954;22;20669;-37
2023/10/15 10:35:45;;;;;;;3.73;1.40;;;24.00;1.00;;;;;;6305650;22;20354;-38
2023/10/15 10:38:17;;;;;;;1.70;1.13;;;24.80;1.00;;;;;;6304287;22;20365;-38
2023/10/15 10:40:54;;;;;;;2.70;1.13;;;25.60;1.00;;;;;;6304990;22;20476;-40
2023/10/15 10:43:24;;;;;;;2.93;1.23;;;26.30;1.00;;;;;;6305820;22;20382;-38
2023/10/15 10:45:53;;;;;;;5.57;1.63;;;26.90;1.00;;;;;;6306707;22;20378;-43
2023/10/15 10:48:21;;;;;;;3.47;1.50;;;27.70;1.00;;;;;;6306128;22;20386;-42
2023/10/15 10:50:48;;;;;;;2.80;1.07;;;27.70;1.00;;;;;;6306411;22;20354;-41
2023/10/15 10:53:18;;;;;;;2.20;1.40;;;27.50;1.00;;;;;;6306555;22;20374;-40
2023/10/15 10:55:43;;;;;;;2.20;1.40;;;26.80;99.90;;;;;;6307692;22;20386;-43
2023/10/15 10:58:24;;;;;;;2.23;1.43;;;26.10;99.90;;;;;;6254182;22;20402;-44
2023/10/15 11:00:49;;;;;;;1.97;0.93;;;25.10;99.90;;;;;;6305561;22;20184;-41
2023/10/15 11:03:15;;;;;;;1.40;0.90;;;24.50;99.90;;;;;;6278527;22;20450;-40
2023/10/15 11:05:41;;;;;;;2.80;1.10;;;24.70;99.90;;;;;;6307090;22;20129;-42
2023/10/15 11:08:19;;;;;;;2.77;1.07;;;24.50;99.90;;;;;;6280631;22;20135;-40
2023/10/15 11:10:45;;;;;;;2.50;1.10;;;24.00;99.90;;;;;;6307460;22;20381;-38
2023/10/15 11:13:17;;;;;;;2.00;0.87;;;23.90;99.90;;;;;;6279669;22;20484;-39
2023/10/15 11:15:44;;;;;;;3.10;1.50;;;24.60;1.00;;;;;;6307037;22;20148;-38
2023/10/15 11:18:09;;;;;;;3.03;1.50;;;25.10;99.90;;;;;;6306815;22;20669;-42
2023/10/15 11:20:36;;;;;;;2.47;1.13;;;25.50;1.00;;;;;;6305887;22;20434;-41
2023/10/15 11:23:08;;;;;;;2.70;1.27;;;25.30;99.90;;;;;;6278673;22;20223;-39
2023/10/15 11:25:34;;;;;;;2.20;1.30;;;25.10;99.90;;;;;;6307815;22;20687;-39
2023/10/15 11:28:06;;;;;;;5.27;1.70;;;24.60;99.90;;;;;;6280579;22;20493;-47
2023/10/15 11:30:35;;;;;;;4.93;1.63;;;24.70;99.90;;;;;;6278325;22;20463;-48
2023/10/15 11:33:01;;;;;;;3.50;1.70;;;26.10;99.90;;;;;;6277045;22;20399;-46
2023/10/15 11:35:33;;;;;;;2.70;1.40;;;26.90;99.90;;;;;;6306584;22;20917;-47
2023/10/15 11:38:07;;;;;;;3.10;1.40;;;27.00;99.90;;;;;;6278959;22;20151;-47
2023/10/15 11:40:36;;;;;;;3.47;1.20;;;26.30;99.90;;;;;;6251662;22;20442;-46
2023/10/15 11:43:02;;;;;;;1.93;1.00;;;25.30;99.90;;;;;;6276347;22;20421;-47
2023/10/15 11:45:31;;;;;;;12.57;1.80;;;24.40;99.90;;;;;;6300218;22;20386;-47
2023/10/15 11:47:58;;;;;;;3.23;1.20;;;23.40;99.90;;;;;;6249794;22;21025;-47
2023/10/15 11:50:25;;;;;;;4.73;1.20;;;22.40;99.90;;;;;;6301613;22;20758;-47
2023/10/15 11:52:52;;;;;;;1.93;1.10;;;21.70;99.90;;;;;;6303468;22;20394;-46
2023/10/15 11:55:22;;;;;;;2.93;1.40;;;20.90;99.90;;;;;;6303822;22;20386;-46
2023/10/15 11:57:51;;;;;;;1.60;1.17;;;20.30;99.90;;;;;;6279758;22;20451;-46
2023/10/15 12:00:34;;;;;;;6.23;1.50;;;19.70;99.90;;;;;;6279193;22;20444;-47
2023/10/15 12:03:05;;;;;;;7.70;1.70;;;19.30;99.90;;;;;;6307248;22;20469;-47
2023/10/15 12:05:32;;;;;;;6.57;2.50;;;19.10;99.90;;;;;;6307596;22;20648;-46
2023/10/15 12:08:01;;;;;;;8.07;1.60;;;19.20;99.90;;;;;;6308125;22;20369;-46
2023/10/15 12:10:27;;;;;;;3.93;1.63;;;19.40;99.90;;;;;;6277968;22;20382;-46
2023/10/15 12:12:53;;;;;;;2.77;1.23;;;19.30;99.90;;;;;;6306549;22;20437;-45
2023/10/15 12:15:30;;;;;;;3.50;1.43;;;19.10;99.90;;;;;;6280354;22;20394;-47
2023/10/15 12:18:04;;;;;;;3.60;1.33;;;19.00;99.90;;;;;;6280190;22;20156;-45
2023/10/15 12:20:30;;;;;;;2.50;1.17;;;19.20;99.90;;;;;;6268641;22;20648;-47
2023/10/15 12:22:56;;;;;;;3.27;1.10;;;19.60;99.90;;;;;;6248190;22;20363;-47
2023/10/15 12:25:22;;;;;;;2.77;1.40;;;20.90;99.90;;;;;;6273501;22;20224;-47
2023/10/15 12:27:49;;;;;;;4.10;1.40;;;22.90;99.90;;;;;;6275372;22;20148;-47
2023/10/15 12:30:24;;;;;;;2.80;1.37;;;24.10;99.90;;;;;;6275127;22;20398;-46
2023/10/15 12:32:54;;;;;;;7.67;1.77;;;24.80;99.90;;;;;;6274753;22;20751;-47
2023/10/15 12:35:21;;;;;;;4.90;1.47;;;25.40;99.90;;;;;;6275826;22;20420;-47
2023/10/15 12:37:49;;;;;;;4.60;1.40;;;26.00;99.90;;;;;;6249343;22;20786;-47
2023/10/15 12:40:29;;;;;;;3.67;1.70;;;26.30;99.90;;;;;;6249573;22;20514;-47
2023/10/15 12:42:55;;;;;;;6.20;1.70;;;27.20;99.90;;;;;;6277978;22;20998;-47
2023/10/15 12:45:21;;;;;;;4.23;1.67;;;26.90;99.90;;;;;;6277482;22;20478;-44
2023/10/15 12:47:48;;;;;;;3.03;1.20;;;26.30;99.90;;;;;;6277937;22;20359;-45
2023/10/15 12:50:14;;;;;;;4.40;1.60;;;25.90;99.90;;;;;;6277879;22;20409;-47
2023/10/15 12:52:47;;;;;;;8.47;1.80;;;25.10;99.90;;;;;;6277970;22;20837;-45
2023/10/15 12:55:19;;;;;;;3.23;1.70;;;24.10;99.90;;;;;;6277378;22;20544;-46
2023/10/15 12:57:46;;;;;;;3.13;1.97;;;23.10;99.90;;;;;;6248965;22;20406;-45
2023/10/15 13:00:19;;;;;;;2.70;1.37;;;22.00;99.90;;;;;;6275577;22;20877;-46
2023/10/15 13:02:49;;;;;;;3.40;1.50;;;21.00;99.90;;;;;;6277099;22;20430;-45
2023/10/15 13:05:21;;;;;;;4.00;1.30;;;20.40;99.90;;;;;;6250702;22;20461;-46
2023/10/15 13:07:50;;;;;;;3.67;1.30;;;20.70;99.90;;;;;;6277123;22;20383;-45
2023/10/15 13:10:20;;;;;;;2.60;1.13;;;21.30;99.90;;;;;;6252425;22;20398;-45
2023/10/15 13:12:51;;;;;;;2.57;1.60;;;21.70;99.90;;;;;;6277315;22;20473;-46